createdAt,value
2022-11-16T00:01:23.267Z,100561.00
2022-11-16T00:06:25.975Z,100552.44
2022-11-16T00:11:38.574Z,100549.03
2022-11-16T00:16:40.518Z,100557.59
2022-11-16T00:21:42.617Z,100549.03
2022-11-16T00:26:45.134Z,100548.22
2022-11-16T00:31:48.982Z,100561.94
2022-11-16T00:36:51.069Z,100559.34
2022-11-16T00:41:53.624Z,100563.66
2022-11-16T00:46:55.333Z,100556.78
2022-11-16T00:51:56.986Z,100551.59
2022-11-16T00:56:59.203Z,100548.13
2022-11-16T01:02:01.017Z,100554.13
2022-11-16T01:07:03.130Z,100547.19
2022-11-16T01:12:11.151Z,100548.09
2022-11-16T01:17:14.446Z,100548.09
2022-11-16T01:22:16.266Z,100552.34
2022-11-16T01:27:18.236Z,100545.47
2022-11-16T01:32:21.016Z,100540.22
2022-11-16T01:37:23.362Z,100542.78
2022-11-16T01:42:28.430Z,100543.69
2022-11-16T01:47:33.937Z,100536.75
2022-11-16T01:52:42.201Z,100535.88
2022-11-16T01:57:46.342Z,100534.13
2022-11-16T02:02:48.422Z,100525.63
2022-11-16T02:08:35.724Z,100526.38
2022-11-16T02:14:06.200Z,100540.16
2022-11-16T02:19:40.450Z,100513.53
2022-11-16T02:25:00.267Z,100521.25
2022-11-16T02:30:03.682Z,100524.72
2022-11-16T02:35:12.870Z,100538.50
2022-11-16T02:40:17.472Z,100548.84
2022-11-16T02:45:48.517Z,100554.94
2022-11-16T02:50:53.405Z,100548.03
2022-11-16T02:55:56.442Z,100542.03
2022-11-16T03:01:06.651Z,100556.63
2022-11-16T03:06:19.770Z,100559.16
2022-11-16T03:11:41.638Z,100547.19
2022-11-16T03:16:48.948Z,100533.41
2022-11-16T03:21:59.831Z,100545.38
2022-11-16T03:27:10.063Z,100544.53
2022-11-16T03:32:42.929Z,100545.31
2022-11-16T03:37:50.090Z,100540.16
2022-11-16T03:43:55.882Z,100547.09
2022-11-16T03:49:00.633Z,100529.03
2022-11-16T03:54:06.359Z,100529.88
2022-11-16T03:59:10.220Z,100535.13
2022-11-16T04:04:32.644Z,100529.13
2022-11-16T04:09:53.371Z,100533.47
2022-11-16T04:15:13.876Z,100530.91
2022-11-16T04:20:34.540Z,100535.22
2022-11-16T04:25:39.613Z,100538.66
2022-11-16T04:31:09.410Z,100553.19
2022-11-16T04:36:36.049Z,100526.84
2022-11-16T04:41:56.506Z,100526.66
2022-11-16T04:47:08.191Z,100535.13
2022-11-16T04:52:12.677Z,100542.03
2022-11-16T04:57:14.812Z,100548.03
2022-11-16T05:02:17.528Z,100548.03
2022-11-16T05:07:25.339Z,100548.00
2022-11-16T05:12:33.522Z,100557.38
2022-11-16T05:17:37.854Z,100574.50
2022-11-16T05:22:45.450Z,100581.31
2022-11-16T05:27:47.218Z,100581.25
2022-11-16T05:32:51.323Z,100594.13
2022-11-16T05:37:55.338Z,100595.81
2022-11-16T05:42:57.986Z,100590.66
2022-11-16T05:48:01.314Z,100614.75
2022-11-16T05:53:03.515Z,100607.81
2022-11-16T05:58:05.464Z,100624.09
2022-11-16T06:03:08.879Z,100638.53
2022-11-16T06:08:11.687Z,100650.53
2022-11-16T06:13:13.562Z,100661.53
2022-11-16T06:18:16.102Z,100649.44
2022-11-16T06:23:18.299Z,100654.59
2022-11-16T06:28:21.265Z,100664.81
2022-11-16T06:33:23.526Z,100664.78
2022-11-16T06:38:25.685Z,100661.22
2022-11-16T06:43:29.342Z,100672.06
2022-11-16T06:48:31.775Z,100685.72
2022-11-16T06:53:33.983Z,100680.41
2022-11-16T06:58:37.123Z,100685.22
2022-11-16T07:03:40.129Z,100688.31
2022-11-16T07:08:48.055Z,100703.97
2022-11-16T07:13:53.736Z,100715.63
2022-11-16T07:18:59.359Z,100721.88
2022-11-16T07:24:04.270Z,100721.25
2022-11-16T07:29:06.941Z,100735.41
2022-11-16T07:34:11.925Z,100747.13
2022-11-16T07:39:29.050Z,100745.22
2022-11-16T07:45:24.482Z,100760.91
2022-11-16T07:50:31.642Z,100756.59
2022-11-16T07:55:41.612Z,100778.25
2022-11-16T08:00:44.138Z,100785.22
2022-11-16T08:05:59.060Z,100790.13
2022-11-16T08:11:06.339Z,100807.03
2022-11-16T08:16:11.829Z,100798.28
2022-11-16T08:21:16.721Z,100800.69
2022-11-16T08:26:22.115Z,100810.81
2022-11-16T08:31:31.647Z,100808.28
2022-11-16T08:36:43.288Z,100812.72
2022-11-16T08:41:45.706Z,100813.41
2022-11-16T08:46:47.850Z,100820.47
2022-11-16T08:52:00.159Z,100822.72
2022-11-16T08:57:01.886Z,100810.28
2022-11-16T09:02:06.513Z,100819.25
2022-11-16T09:07:08.393Z,100821.16
2022-11-16T09:12:10.153Z,100812.53
2022-11-16T09:17:11.726Z,100794.47
2022-11-16T09:22:13.300Z,100774.00
2022-11-16T09:27:15.217Z,100756.94
2022-11-16T09:32:16.752Z,100697.78
2022-11-16T09:37:19.456Z,100658.63
2022-11-16T09:42:58.529Z,100627.63
2022-11-16T09:48:04.003Z,100587.44
2022-11-16T09:53:20.604Z,100564.97
2022-11-16T09:58:31.622Z,100538.75
2022-11-16T10:03:40.759Z,100506.50
2022-11-16T10:08:45.924Z,100506.59
2022-11-16T10:13:47.469Z,100472.31
2022-11-16T10:18:59.600Z,100445.69
2022-11-16T10:24:25.313Z,100384.59
2022-11-16T10:29:53.636Z,100286.13
2022-11-16T10:35:01.217Z,100255.94
2022-11-16T10:40:24.554Z,100263.78
2022-11-16T10:45:37.883Z,100248.13
2022-11-16T10:50:49.019Z,100216.47
2022-11-16T10:56:12.169Z,100182.88
2022-11-16T11:01:14.031Z,100180.28
2022-11-16T11:06:16.129Z,100166.59
2022-11-16T11:11:42.086Z,100163.63
2022-11-16T11:16:43.931Z,100173.53
2022-11-16T11:21:47.510Z,100179.44
2022-11-16T11:26:58.631Z,100156.50
2022-11-16T11:38:46.035Z,100128.03
2022-11-16T11:44:05.917Z,100095.56
2022-11-16T11:49:20.917Z,100097.31
2022-11-16T11:54:29.796Z,100077.69
2022-11-16T11:59:31.519Z,100082.44
2022-11-16T12:04:56.125Z,100082.50
2022-11-16T12:10:23.415Z,100077.50
2022-11-16T12:15:25.109Z,100075.19
2022-11-16T12:20:38.176Z,100087.97
2022-11-16T12:25:54.291Z,100087.97
2022-11-16T12:30:59.030Z,100088.59
2022-11-16T12:36:23.356Z,100075.72
2022-11-16T12:41:46.466Z,100057.78
2022-11-16T12:47:23.416Z,100039.66
2022-11-16T12:53:04.829Z,100055.31
2022-11-16T12:58:24.608Z,100076.19
2022-11-16T13:03:32.619Z,100079.75
2022-11-16T13:08:55.754Z,100086.50
2022-11-16T13:14:04.292Z,100084.84
2022-11-16T13:19:10.178Z,100086.72
2022-11-16T13:24:23.828Z,100078.88
2022-11-16T13:29:33.860Z,100073.03
2022-11-16T13:34:38.769Z,100063.88
2022-11-16T13:39:58.821Z,100046.56
2022-11-16T13:45:32.447Z,100025.22
2022-11-16T13:50:38.845Z,100009.53
2022-11-16T13:55:46.609Z,99994.00
2022-11-16T14:01:01.664Z,99990.47
2022-11-16T14:06:20.502Z,99996.44
2022-11-16T14:11:38.822Z,99989.56
2022-11-16T14:16:44.842Z,99996.47
2022-11-16T14:22:07.722Z,99980.03
2022-11-16T14:27:31.006Z,99975.66
2022-11-16T14:32:44.433Z,99983.28
2022-11-16T14:37:46.055Z,99986.41
2022-11-16T14:43:15.390Z,99987.25
2022-11-16T14:48:22.296Z,99998.31
2022-11-16T14:53:25.514Z,99990.44
2022-11-16T14:58:27.220Z,99996.22
2022-11-16T15:03:34.452Z,99997.91
2022-11-16T15:08:47.268Z,100008.97
2022-11-16T15:13:55.867Z,100004.47
2022-11-16T15:19:00.888Z,100010.94
2022-11-16T15:24:30.474Z,99999.72
2022-11-16T15:29:34.551Z,100008.91
2022-11-16T15:34:39.328Z,100006.94
2022-11-16T15:39:42.213Z,100011.78
2022-11-16T15:45:09.444Z,100015.41
2022-11-16T15:50:19.369Z,100003.28
2022-11-16T15:55:39.562Z,100008.47
2022-11-16T16:00:42.030Z,100011.88
2022-11-16T16:05:55.224Z,100006.78
2022-11-16T16:11:16.075Z,100009.38
2022-11-16T16:16:38.266Z,99995.91
2022-11-16T16:21:43.107Z,99974.34
2022-11-16T16:26:44.653Z,99960.56
2022-11-16T16:31:47.216Z,99967.53
2022-11-16T16:37:00.985Z,99969.25
2022-11-16T16:42:03.155Z,99971.84
2022-11-16T16:47:04.950Z,99956.25
2022-11-16T16:52:07.559Z,99975.09
2022-11-16T16:57:16.592Z,99986.34
2022-11-16T17:02:18.205Z,99962.31
2022-11-16T17:07:19.885Z,99952.00
2022-11-16T17:12:21.519Z,99952.09
2022-11-16T17:17:26.057Z,99929.75
2022-11-16T17:22:27.664Z,99921.03
2022-11-16T17:27:30.056Z,99921.09
2022-11-16T17:32:31.569Z,99924.41
2022-11-16T17:37:33.150Z,99911.47
2022-11-16T17:42:35.666Z,99914.81
2022-11-16T17:47:37.380Z,99909.72
2022-11-16T17:52:38.961Z,99914.75
2022-11-16T17:57:40.522Z,99916.41
2022-11-16T18:02:42.110Z,99902.56
2022-11-16T18:07:43.680Z,99898.91
2022-11-16T18:12:45.432Z,99907.31
2022-11-16T18:17:47.232Z,99908.78
2022-11-16T18:22:48.790Z,99902.53
2022-11-16T18:27:55.241Z,99911.09
2022-11-16T18:32:56.782Z,99914.47
2022-11-16T18:37:58.344Z,99905.88
2022-11-16T18:42:59.911Z,99899.09
2022-11-16T18:48:01.449Z,99898.09
2022-11-16T18:53:03.299Z,99889.44
2022-11-16T18:58:22.571Z,99897.31
2022-11-16T19:03:27.416Z,99892.94
2022-11-16T19:08:30.123Z,99893.78
2022-11-16T19:13:31.945Z,99903.09
2022-11-16T19:18:35.380Z,99888.72
2022-11-16T19:23:45.057Z,99886.88
2022-11-16T19:28:49.086Z,99881.66
2022-11-16T19:33:55.131Z,99873.19
2022-11-16T19:38:58.969Z,99866.44
2022-11-16T19:44:01.926Z,99871.00
2022-11-16T19:49:04.067Z,99846.19
2022-11-16T19:54:06.468Z,99837.66
2022-11-16T19:59:08.541Z,99833.53
2022-11-16T20:04:10.658Z,99835.53
2022-11-16T20:09:14.658Z,99821.97
2022-11-16T20:14:16.469Z,99807.41
2022-11-16T20:19:19.256Z,99796.22
2022-11-16T20:24:21.088Z,99787.75
2022-11-16T20:29:22.819Z,99769.78
2022-11-16T20:34:24.445Z,99767.16
2022-11-16T20:39:26.326Z,99738.91
2022-11-16T20:44:30.049Z,99738.81
2022-11-16T20:49:31.570Z,99737.88
2022-11-16T20:54:33.727Z,99726.72
2022-11-16T20:59:35.371Z,99732.78
2022-11-16T21:04:36.980Z,99729.44
2022-11-16T21:09:58.876Z,99713.19
2022-11-16T21:15:00.536Z,99698.66
2022-11-16T21:20:28.086Z,99680.78
2022-11-16T21:25:24.272Z,99677.41
2022-11-16T21:30:26.160Z,99667.19
2022-11-16T21:35:30.364Z,99662.88
2022-11-16T21:40:31.926Z,99648.41
2022-11-16T21:45:35.252Z,99632.97
2022-11-16T21:50:37.252Z,99618.44
2022-11-16T21:55:39.018Z,99605.66
2022-11-16T22:00:40.533Z,99585.06
2022-11-16T22:06:00.982Z,99584.16
2022-11-16T22:11:02.469Z,99573.06
2022-11-16T22:16:05.677Z,99552.44
2022-11-16T22:21:07.774Z,99543.84
2022-11-16T22:26:11.682Z,99536.94
2022-11-16T22:31:14.696Z,99543.81
2022-11-16T22:36:16.330Z,99535.22
2022-11-16T22:41:17.945Z,99528.28
2022-11-16T22:46:44.407Z,99528.34
2022-11-16T22:51:49.294Z,99517.16
2022-11-16T22:56:50.834Z,99498.38
2022-11-16T23:01:54.348Z,99494.06
2022-11-16T23:06:55.994Z,99477.75
2022-11-16T23:12:18.467Z,99467.41
2022-11-16T23:17:21.075Z,99463.91
2022-11-16T23:22:42.544Z,99459.53
2022-11-16T23:28:00.518Z,99453.59
2022-11-16T23:33:02.928Z,99435.56
2022-11-16T23:38:06.999Z,99420.09
2022-11-16T23:43:48.959Z,99404.59
2022-11-16T23:48:50.609Z,99402.84
2022-11-16T23:53:53.425Z,99394.25
2022-11-16T23:58:57.381Z,99393.41
